Time;durP1;ratioP1;P1;durP2;ratioP2;P2;SDS_P1;SDS_P2;PMS_P1;PMS_P2;Temp;Humidity;BMP_temperature;BMP_pressure;BME280_temperature;BME280_humidity;BME280_pressure;Samples;Min_cycle;Max_cycle;Signal;HPM_P1;HPM_P2
2023/11/27 00:01:46;;;;;;;0.20;0.00;;;-2.10;81.80;;;;;;25445036;23;20009;-47
2023/11/27 00:11:48;;;;;;;0.00;0.00;;;-2.10;81.80;;;;;;25471192;23;20064;-47
2023/11/27 00:21:50;;;;;;;2.25;0.08;;;-2.50;83.50;;;;;;25469225;23;20009;-57
2023/11/27 00:31:52;;;;;;;0.32;0.03;;;-2.80;84.80;;;;;;25470769;23;20056;-51
2023/11/27 00:41:54;;;;;;;0.10;0.00;;;-3.00;87.80;;;;;;25469863;23;20013;-57
2023/11/27 00:51:56;;;;;;;0.30;0.00;;;-3.10;88.20;;;;;;25474763;23;20001;-58
2023/11/27 01:01:58;;;;;;;0.28;0.10;;;-3.30;86.80;;;;;;25477948;23;20009;-57
2023/11/27 01:11:59;;;;;;;0.15;0.00;;;-3.00;86.70;;;;;;25476701;23;20387;-51
2023/11/27 01:22:03;;;;;;;0.38;0.10;;;-3.00;87.00;;;;;;25477098;23;20008;-46
2023/11/27 01:32:05;;;;;;;0.25;0.10;;;-3.20;87.60;;;;;;25475424;23;20500;-54
2023/11/27 01:42:07;;;;;;;0.88;0.10;;;-3.10;88.60;;;;;;25476394;23;20512;-57
2023/11/27 01:52:09;;;;;;;0.05;0.05;;;-3.40;88.30;;;;;;25475764;23;20009;-45
2023/11/27 02:02:14;;;;;;;0.75;0.15;;;-3.40;87.60;;;;;;25475036;23;20061;-57
2023/11/27 02:12:15;;;;;;;0.22;0.10;;;-3.40;88.30;;;;;;25475505;23;20037;-56
2023/11/27 02:22:17;;;;;;;0.15;0.10;;;-3.40;89.10;;;;;;25473181;23;20012;-56
2023/11/27 02:32:19;;;;;;;0.28;0.00;;;-3.70;89.70;;;;;;25473165;23;20438;-57
2023/11/27 02:42:23;;;;;;;0.00;0.00;;;-3.70;89.70;;;;;;25474185;23;20010;-45
2023/11/27 02:52:25;;;;;;;0.40;0.10;;;-3.60;89.00;;;;;;25473666;23;20006;-47
2023/11/27 03:02:27;;;;;;;0.30;0.10;;;-3.60;89.70;;;;;;25473382;23;20009;-53
2023/11/27 03:12:29;;;;;;;0.55;0.10;;;-3.60;89.50;;;;;;25472897;23;20064;-46
2023/11/27 03:22:31;;;;;;;0.20;0.10;;;-3.50;89.50;;;;;;25471551;23;20014;-55
2023/11/27 03:32:33;;;;;;;0.13;0.00;;;-3.50;89.20;;;;;;25471996;23;20002;-57
2023/11/27 03:42:36;;;;;;;0.38;0.10;;;-3.40;88.60;;;;;;25469958;23;20009;-58
2023/11/27 03:52:39;;;;;;;0.38;0.10;;;-3.10;87.50;;;;;;25471143;23;20001;-50
2023/11/27 04:02:41;;;;;;;0.47;0.10;;;-3.10;87.20;;;;;;25471122;23;20036;-57
2023/11/27 04:12:43;;;;;;;0.55;0.20;;;-3.00;87.50;;;;;;25469795;23;20001;-45
2023/11/27 04:22:45;;;;;;;0.73;0.10;;;-2.50;86.40;;;;;;25470141;23;20067;-57
2023/11/27 04:32:46;;;;;;;0.10;0.10;;;-2.30;84.20;;;;;;25479075;23;20434;-57
2023/11/27 04:42:48;;;;;;;0.45;0.10;;;-2.50;86.90;;;;;;25479365;23;20315;-55
2023/11/27 04:52:50;;;;;;;0.20;0.05;;;-2.70;86.80;;;;;;25478347;23;20010;-48
2023/11/27 05:02:52;;;;;;;0.82;0.10;;;-2.80;90.10;;;;;;25477829;23;20016;-48
2023/11/27 05:12:56;;;;;;;0.10;0.10;;;-2.70;88.70;;;;;;25477716;23;20001;-49
2023/11/27 05:23:02;;;;;;;0.52;0.20;;;-2.60;89.10;;;;;;25475225;23;20005;-44
2023/11/27 05:33:04;;;;;;;1.67;0.70;;;-2.50;88.70;;;;;;25516480;23;20005;-44
2023/11/27 05:43:07;;;;;;;3.90;0.45;;;-2.20;90.60;;;;;;25475547;23;20496;-49
2023/11/27 05:53:09;;;;;;;1.63;0.50;;;-1.70;95.10;;;;;;25475807;23;20006;-47
2023/11/27 06:03:11;;;;;;;0.75;0.50;;;-0.70;91.20;;;;;;25475609;23;20021;-47
2023/11/27 06:13:12;;;;;;;1.33;0.30;;;0.80;91.10;;;;;;25476627;23;20302;-46
2023/11/27 06:23:17;;;;;;;3.85;0.40;;;-0.20;92.30;;;;;;25474869;23;20334;-56
2023/11/27 06:33:20;;;;;;;0.95;0.50;;;-0.30;93.30;;;;;;25473954;23;20002;-58
2023/11/27 06:43:24;;;;;;;2.50;0.40;;;-1.00;91.70;;;;;;25474079;23;20006;-51
2023/11/27 06:53:25;;;;;;;1.15;0.45;;;-0.40;93.90;;;;;;25473738;23;20013;-56
2023/11/27 07:03:28;;;;;;;1.23;0.30;;;-0.50;90.00;;;;;;25473396;23;20010;-56
2023/11/27 07:13:29;;;;;;;0.93;0.30;;;-1.00;93.50;;;;;;25473245;23;20009;-58
2023/11/27 07:23:32;;;;;;;0.90;0.20;;;0.30;96.10;;;;;;25472612;23;20006;-49
2023/11/27 07:33:34;;;;;;;3.67;0.40;;;0.50;95.80;;;;;;25472297;23;20080;-58
2023/11/27 07:43:38;;;;;;;1.63;0.30;;;1.80;95.70;;;;;;25458685;23;20017;-58
2023/11/27 07:53:40;;;;;;;1.55;0.40;;;2.50;95.10;;;;;;25460505;23;20068;-58
2023/11/27 08:03:42;;;;;;;2.85;0.20;;;3.40;91.90;;;;;;25460172;23;20079;-58
2023/11/27 08:13:43;;;;;;;1.13;0.40;;;3.30;92.90;;;;;;25462049;23;20433;-58
2023/11/27 08:23:45;;;;;;;0.63;0.40;;;2.70;87.30;;;;;;25471126;23;20005;-55
2023/11/27 08:33:48;;;;;;;1.27;0.40;;;2.50;83.50;;;;;;25470618;23;20009;-58
2023/11/27 08:43:50;;;;;;;0.68;0.32;;;2.40;90.70;;;;;;25470158;23;20009;-60
2023/11/27 08:53:52;;;;;;;1.67;0.30;;;2.10;86.10;;;;;;25470347;23;20006;-58
2023/11/27 09:03:54;;;;;;;1.38;0.30;;;2.50;89.00;;;;;;25471588;23;20013;-58
2023/11/27 09:13:56;;;;;;;0.77;0.30;;;2.50;86.70;;;;;;25475363;23;20013;-58
2023/11/27 09:23:58;;;;;;;1.52;0.50;;;2.70;85.80;;;;;;25477297;23;20009;-54
2023/11/27 09:34:00;;;;;;;1.60;0.40;;;2.70;82.70;;;;;;25477034;23;20006;-58
2023/11/27 09:44:03;;;;;;;1.33;0.60;;;2.80;82.90;;;;;;25476428;23;20010;-58
2023/11/27 09:54:09;;;;;;;1.63;0.80;;;3.40;80.30;;;;;;25476296;23;20005;-57
2023/11/27 10:04:11;;;;;;;1.77;0.70;;;3.10;77.60;;;;;;25475600;23;20018;-45
2023/11/27 10:14:13;;;;;;;1.83;0.65;;;2.60;81.70;;;;;;25477806;23;20005;-57
2023/11/27 10:24:16;;;;;;;1.08;0.57;;;3.20;83.60;;;;;;25474202;23;20092;-58
2023/11/27 10:34:18;;;;;;;1.25;0.30;;;4.50;90.20;;;;;;25474179;23;20040;-53
2023/11/27 10:44:22;;;;;;;2.00;1.10;;;5.30;92.20;;;;;;25472577;23;20064;-49
2023/11/27 10:54:27;;;;;;;3.15;1.10;;;5.50;86.80;;;;;;25473608;23;20011;-58
2023/11/27 11:04:40;;;;;;;1.27;0.70;;;6.10;87.40;;;;;;25473273;23;20014;-51
2023/11/27 11:14:43;;;;;;;1.17;0.30;;;6.80;89.60;;;;;;25513882;23;20002;-50
2023/11/27 11:25:08;;;;;;;2.70;1.70;;;6.40;90.70;;;;;;25472443;23;20052;-58
2023/11/27 11:35:11;;;;;;;2.88;1.73;;;5.90;85.40;;;;;;25512211;23;20005;-58
2023/11/27 11:45:25;;;;;;;2.75;1.75;;;5.30;88.30;;;;;;25471566;23;20010;-53
2023/11/27 11:55:30;;;;;;;2.67;1.75;;;5.50;85.70;;;;;;25512438;23;20033;-59
2023/11/27 12:05:33;;;;;;;3.70;2.20;;;4.80;85.60;;;;;;25510458;23;20024;-58
2023/11/27 12:15:34;;;;;;;3.92;2.25;;;4.10;85.70;;;;;;25471299;23;20434;-58
2023/11/27 12:25:36;;;;;;;3.95;2.30;;;3.50;89.80;;;;;;25470543;23;20005;-59
2023/11/27 12:35:38;;;;;;;3.45;2.05;;;3.80;90.10;;;;;;25470700;23;20013;-59
2023/11/27 12:45:41;;;;;;;4.32;2.42;;;3.70;88.10;;;;;;25473070;23;20013;-59
2023/11/27 12:55:48;;;;;;;4.55;2.60;;;3.40;90.00;;;;;;25478518;23;20018;-56
2023/11/27 13:05:53;;;;;;;4.03;2.15;;;3.50;89.80;;;;;;25518808;23;20014;-52
2023/11/27 13:15:59;;;;;;;5.10;2.72;;;3.20;90.70;;;;;;25477640;23;20009;-49
2023/11/27 13:26:17;;;;;;;5.47;2.60;;;3.10;89.80;;;;;;25517968;23;20041;-48
2023/11/27 13:36:19;;;;;;;4.03;2.42;;;3.10;91.00;;;;;;25517386;23;20005;-58
2023/11/27 13:46:20;;;;;;;2.45;1.67;;;3.30;91.60;;;;;;25475723;23;20016;-59
2023/11/27 13:56:22;;;;;;;2.58;1.10;;;3.70;92.80;;;;;;25476045;23;20012;-58
2023/11/27 14:06:28;;;;;;;2.58;1.48;;;3.50;93.00;;;;;;25475598;23;20065;-57
2023/11/27 14:16:30;;;;;;;4.38;2.25;;;3.00;93.30;;;;;;25515906;23;20012;-58
2023/11/27 14:26:53;;;;;;;4.85;1.90;;;2.50;92.50;;;;;;25474474;23;20009;-57
2023/11/27 14:36:55;;;;;;;4.22;1.92;;;1.90;95.20;;;;;;25515519;23;20330;-58
2023/11/27 14:46:57;;;;;;;3.55;1.73;;;1.70;95.10;;;;;;25473830;23;20438;-57
2023/11/27 14:57:02;;;;;;;4.78;1.70;;;1.20;95.90;;;;;;25474185;23;20005;-58
2023/11/27 15:07:07;;;;;;;3.78;2.35;;;1.40;98.20;;;;;;25473197;23;20068;-58
2023/11/27 15:17:09;;;;;;;3.40;2.25;;;1.50;95.50;;;;;;25472838;23;20001;-57
2023/11/27 15:27:11;;;;;;;4.90;2.05;;;1.00;96.20;;;;;;25472548;23;20056;-58
2023/11/27 15:37:14;;;;;;;3.03;2.00;;;0.70;96.40;;;;;;25472092;23;20085;-50
2023/11/27 15:47:16;;;;;;;3.53;2.08;;;0.50;98.80;;;;;;25471516;23;20021;-58
2023/11/27 15:57:18;;;;;;;3.58;2.03;;;0.40;99.30;;;;;;25471728;23;20009;-58
2023/11/27 16:07:20;;;;;;;1.60;1.10;;;0.50;99.90;;;;;;25469862;23;20013;-47
2023/11/27 16:17:22;;;;;;;3.63;1.25;;;0.70;99.90;;;;;;25470516;23;20144;-48
2023/11/27 16:27:28;;;;;;;1.05;0.40;;;1.00;99.90;;;;;;25470839;23;20009;-52
2023/11/27 16:37:32;;;;;;;0.52;0.30;;;1.40;99.90;;;;;;25468947;23;20008;-46
2023/11/27 16:47:35;;;;;;;1.33;0.50;;;1.70;99.90;;;;;;25470172;23;20010;-49
2023/11/27 16:57:37;;;;;;;3.38;1.65;;;1.90;99.90;;;;;;25444395;23;20010;-52
2023/11/27 17:07:39;;;;;;;2.80;1.70;;;1.60;99.90;;;;;;25468861;23;20008;-58
2023/11/27 17:17:43;;;;;;;4.50;1.00;;;0.90;99.90;;;;;;25468522;23;20005;-58
2023/11/27 17:27:47;;;;;;;6.00;1.88;;;1.10;99.90;;;;;;25468306;23;20001;-59
2023/11/27 17:37:50;;;;;;;7.65;2.47;;;0.70;99.90;;;;;;25475755;23;20382;-47
2023/11/27 17:47:53;;;;;;;3.78;2.10;;;0.70;99.90;;;;;;25473911;23;20017;-58
2023/11/27 17:57:56;;;;;;;3.80;2.05;;;0.50;99.90;;;;;;25476093;23;20041;-58
2023/11/27 18:07:58;;;;;;;4.70;2.00;;;0.30;99.90;;;;;;25475703;23;20053;-57
2023/11/27 18:18:04;;;;;;;5.35;2.17;;;0.30;99.90;;;;;;25473798;23;20345;-58
2023/11/27 18:28:06;;;;;;;4.75;2.50;;;0.20;99.90;;;;;;25475267;23;20013;-58
2023/11/27 18:38:08;;;;;;;5.63;2.33;;;0.20;99.90;;;;;;25474193;23;20476;-57
2023/11/27 18:48:10;;;;;;;9.30;2.20;;;0.30;99.90;;;;;;25514961;23;20016;-54
2023/11/27 18:58:15;;;;;;;4.40;1.90;;;0.60;99.90;;;;;;25474008;23;20006;-57
2023/11/27 19:08:18;;;;;;;4.22;2.63;;;0.60;99.90;;;;;;25473621;23;20056;-58
2023/11/27 19:18:20;;;;;;;8.40;2.35;;;0.60;99.90;;;;;;25472112;23;20013;-58
2023/11/27 19:28:23;;;;;;;3.38;2.22;;;0.50;99.90;;;;;;25473032;23;20010;-55
2023/11/27 19:38:31;;;;;;;5.57;2.60;;;0.20;99.90;;;;;;25472370;23;20020;-58
2023/11/27 19:48:38;;;;;;;6.00;2.80;;;-0.20;99.90;;;;;;25512721;23;20037;-52
2023/11/27 19:58:42;;;;;;;6.47;3.00;;;-0.10;99.90;;;;;;25510539;23;20037;-59
2023/11/27 20:08:44;;;;;;;7.43;3.17;;;0.00;99.90;;;;;;25471444;23;20037;-58
2023/11/27 20:18:49;;;;;;;4.70;3.35;;;0.10;99.90;;;;;;25470859;23;20005;-57
2023/11/27 20:28:51;;;;;;;430.70;18.90;;;0.10;99.90;;;;;;25471355;23;20005;-57
2023/11/27 20:38:54;;;;;;;263.52;11.57;;;0.20;99.90;;;;;;25471504;23;20013;-58
2023/11/27 20:49:00;;;;;;;439.80;18.42;;;0.20;99.90;;;;;;25470456;23;20008;-57
2023/11/27 20:59:02;;;;;;;417.42;16.10;;;0.20;99.90;;;;;;25511311;23;20048;-58
2023/11/27 21:09:05;;;;;;;72.20;3.95;;;0.30;99.90;;;;;;25472961;23;20013;-59
2023/11/27 21:19:07;;;;;;;174.20;8.98;;;0.20;99.90;;;;;;25477605;23;20005;-58
2023/11/27 21:29:08;;;;;;;1999.90;999.90;;;0.20;99.90;;;;;;25479163;23;20381;-59
2023/11/27 21:39:12;;;;;;;54.15;3.17;;;0.40;99.90;;;;;;25476665;23;20156;-59
2023/11/27 21:49:14;;;;;;;30.58;1.48;;;0.40;99.90;;;;;;25476751;23;20001;-59
2023/11/27 21:59:16;;;;;;;0.20;0.15;;;0.40;99.90;;;;;;25476407;23;20013;-59
2023/11/27 22:09:20;;;;;;;17.60;0.73;;;0.40;99.90;;;;;;25475377;23;20446;-59
2023/11/27 22:19:23;;;;;;;92.00;2.88;;;0.40;99.90;;;;;;25474746;23;20052;-59
2023/11/27 22:29:25;;;;;;;0.00;0.00;;;0.40;99.90;;;;;;25475266;23;20009;-59
2023/11/27 22:39:27;;;;;;;0.28;0.10;;;0.40;99.90;;;;;;25474578;23;20033;-59
2023/11/27 22:49:28;;;;;;;0.10;0.10;;;0.40;99.90;;;;;;25474425;23;20041;-50
2023/11/27 22:59:30;;;;;;;82.90;2.20;;;0.40;99.90;;;;;;25474113;23;20028;-59
2023/11/27 23:09:33;;;;;;;57.92;2.30;;;0.40;99.90;;;;;;25473369;23;20377;-53
2023/11/27 23:19:35;;;;;;;0.75;0.50;;;0.40;99.90;;;;;;25472686;23;20434;-58
2023/11/27 23:29:37;;;;;;;1.85;1.10;;;0.40;99.90;;;;;;25472573;23;20001;-60
2023/11/27 23:39:39;;;;;;;0.70;0.50;;;0.60;99.90;;;;;;25470727;23;20021;-59
2023/11/27 23:49:41;;;;;;;214.73;6.75;;;0.60;99.90;;;;;;25471936;23;20009;-60
2023/11/27 23:59:42;;;;;;;353.75;10.07;;;0.50;99.90;;;;;;25471850;23;20020;-60
